Time;durP1;ratioP1;P1;durP2;ratioP2;P2;SDS_P1;SDS_P2;PMS_P1;PMS_P2;Temp;Humidity;BMP_temperature;BMP_pressure;BME280_temperature;BME280_humidity;BME280_pressure;Samples;Min_cycle;Max_cycle;Signal;HPM_P1;HPM_P2
2023/06/13 00:02:22;;;;;;;3.28;1.70;;;;;;;;;;10344473;28;20231;-75
2023/06/13 00:07:23;;;;;;;1.50;1.50;;;;;;;;;;10330083;28;20224;-75
2023/06/13 00:12:25;;;;;;;1.52;1.35;;;;;;;;;;10351987;28;21101;-74
2023/06/13 00:17:26;;;;;;;1.23;1.23;;;;;;;;;;10339917;28;20222;-75
2023/06/13 00:22:28;;;;;;;1.85;1.75;;;;;;;;;;10344210;28;22313;-75
2023/06/13 00:27:30;;;;;;;1.40;1.33;;;;;;;;;;10348143;28;20216;-74
2023/06/13 00:32:31;;;;;;;1.30;1.30;;;;;;;;;;10339463;28;20302;-74
2023/06/13 00:37:34;;;;;;;4.05;1.50;;;;;;;;;;10316494;28;20204;-75
2023/06/13 00:42:35;;;;;;;1.30;1.30;;;;;;;;;;10324600;28;20232;-75
2023/06/13 00:47:36;;;;;;;2.58;1.50;;;;;;;;;;10334045;28;20726;-75
2023/06/13 00:52:39;;;;;;;1.17;1.17;;;;;;;;;;10320738;28;20223;-76
2023/06/13 00:57:40;;;;;;;1.50;1.40;;;;;;;;;;10335133;28;20208;-74
2023/06/13 01:02:44;;;;;;;3.90;1.00;;;;;;;;;;10333828;28;20212;-77
2023/06/13 01:07:46;;;;;;;1.30;1.30;;;;;;;;;;10332268;28;20897;-75
2023/06/13 01:13:00;;;;;;;1.50;1.40;;;;;;;;;;10336624;28;20241;-75
2023/06/13 01:18:03;;;;;;;2.78;1.42;;;;;;;;;;10335626;28;21133;-76
2023/06/13 01:23:17;;;;;;;3.25;1.20;;;;;;;;;;10311121;28;20644;-77
2023/06/13 01:28:20;;;;;;;1.27;1.17;;;;;;;;;;10329923;28;20769;-76
2023/06/13 01:33:23;;;;;;;1.00;1.00;;;;;;;;;;10330294;28;20362;-75
2023/06/13 01:38:24;;;;;;;0.98;0.93;;;;;;;;;;10335375;28;20228;-75
2023/06/13 01:43:25;;;;;;;0.80;0.80;;;;;;;;;;10333750;28;20218;-75
2023/06/13 01:48:40;;;;;;;1.20;1.20;;;;;;;;;;10343088;28;20697;-74
2023/06/13 01:53:47;;;;;;;0.77;0.77;;;;;;;;;;10354049;28;20266;-75
2023/06/13 01:58:48;;;;;;;1.50;0.88;;;;;;;;;;10336010;28;20269;-74
2023/06/13 02:03:49;;;;;;;0.70;0.70;;;;;;;;;;10336707;28;20277;-75
2023/06/13 02:08:50;;;;;;;0.88;0.82;;;;;;;;;;10335996;28;20220;-76
2023/06/13 02:13:51;;;;;;;0.80;0.80;;;;;;;;;;10328314;28;20220;-75
2023/06/13 02:18:53;;;;;;;1.58;1.00;;;;;;;;;;10331989;28;20683;-76
2023/06/13 02:23:54;;;;;;;1.95;1.10;;;;;;;;;;10331374;28;20208;-75
2023/06/13 02:28:57;;;;;;;0.95;0.80;;;;;;;;;;10340333;28;20593;-74
2023/06/13 02:33:58;;;;;;;1.00;1.00;;;;;;;;;;10345331;28;20236;-75
2023/06/13 02:39:02;;;;;;;1.00;0.90;;;;;;;;;;10342283;28;20606;-74
2023/06/13 02:44:04;;;;;;;1.10;1.08;;;;;;;;;;10342602;28;20212;-74
2023/06/13 02:49:05;;;;;;;1.10;1.10;;;;;;;;;;10317579;28;20243;-74
2023/06/13 02:54:07;;;;;;;1.23;0.88;;;;;;;;;;10336805;28;20249;-75
2023/06/13 02:59:08;;;;;;;3.00;0.98;;;;;;;;;;10321442;28;20212;-73
2023/06/13 03:04:10;;;;;;;0.90;0.80;;;;;;;;;;10338673;28;20240;-74
2023/06/13 03:09:11;;;;;;;1.10;1.10;;;;;;;;;;10329415;28;20224;-74
2023/06/13 03:14:13;;;;;;;1.73;0.90;;;;;;;;;;10345082;28;20228;-74
2023/06/13 03:19:15;;;;;;;1.55;0.95;;;;;;;;;;10327534;28;20716;-75
2023/06/13 03:24:16;;;;;;;0.80;0.80;;;;;;;;;;10337481;28;20843;-75
2023/06/13 03:29:17;;;;;;;1.10;1.10;;;;;;;;;;10337114;28;20697;-75
2023/06/13 03:34:24;;;;;;;0.98;0.98;;;;;;;;;;10332981;28;20224;-75
2023/06/13 03:39:25;;;;;;;1.23;1.10;;;;;;;;;;10324804;28;20220;-75
2023/06/13 03:44:27;;;;;;;1.10;1.10;;;;;;;;;;10333867;28;20224;-74
2023/06/13 03:49:28;;;;;;;1.38;0.80;;;;;;;;;;10338493;28;20266;-74
2023/06/13 03:54:30;;;;;;;1.25;1.25;;;;;;;;;;10328201;28;20219;-74
2023/06/13 03:59:32;;;;;;;1.25;1.15;;;;;;;;;;10335470;28;20216;-74
2023/06/13 04:04:33;;;;;;;1.38;1.10;;;;;;;;;;10326773;28;20219;-74
2023/06/13 04:09:36;;;;;;;3.03;1.13;;;;;;;;;;10327410;28;20314;-75
2023/06/13 04:14:37;;;;;;;1.10;1.00;;;;;;;;;;10309808;28;20216;-73
2023/06/13 04:19:38;;;;;;;0.95;0.95;;;;;;;;;;10345031;28;20709;-75
2023/06/13 04:24:39;;;;;;;3.50;0.90;;;;;;;;;;10334605;28;20234;-75
2023/06/13 04:29:43;;;;;;;1.17;1.08;;;;;;;;;;10322823;28;20709;-75
2023/06/13 04:34:44;;;;;;;1.23;1.10;;;;;;;;;;10333135;28;20235;-76
2023/06/13 04:39:45;;;;;;;1.60;1.50;;;;;;;;;;10337610;28;20235;-75
2023/06/13 04:44:48;;;;;;;1.42;1.27;;;;;;;;;;10353875;28;20874;-75
2023/06/13 04:49:51;;;;;;;2.60;1.10;;;;;;;;;;10334777;28;20672;-76
2023/06/13 04:54:54;;;;;;;1.10;1.10;;;;;;;;;;10341243;28;20224;-75
2023/06/13 04:59:56;;;;;;;1.50;1.40;;;;;;;;;;10354206;28;20220;-75
2023/06/13 05:04:57;;;;;;;1.45;1.25;;;;;;;;;;10342447;28;20215;-75
2023/06/13 05:09:58;;;;;;;1.48;1.33;;;;;;;;;;10343014;28;20224;-75
2023/06/13 05:14:59;;;;;;;2.35;1.40;;;;;;;;;;10351820;28;20319;-75
2023/06/13 05:20:00;;;;;;;1.35;1.33;;;;;;;;;;10340003;28;20224;-75
2023/06/13 05:25:01;;;;;;;1.52;1.52;;;;;;;;;;10324737;28;20220;-75
2023/06/13 05:30:03;;;;;;;1.60;1.50;;;;;;;;;;10335360;28;20690;-75
2023/06/13 05:35:04;;;;;;;1.25;1.15;;;;;;;;;;10354622;28;20226;-75
2023/06/13 05:40:09;;;;;;;2.58;1.30;;;;;;;;;;10329683;28;20970;-76
2023/06/13 05:45:10;;;;;;;1.52;1.40;;;;;;;;;;10338243;28;20986;-76
2023/06/13 05:50:11;;;;;;;2.40;1.70;;;;;;;;;;10347745;28;20192;-75
2023/06/13 05:55:12;;;;;;;1.50;1.40;;;;;;;;;;10335782;28;20212;-75
2023/06/13 06:00:14;;;;;;;2.65;1.55;;;;;;;;;;10339396;28;20650;-76
2023/06/13 06:05:15;;;;;;;1.35;1.35;;;;;;;;;;10337874;28;20232;-75
2023/06/13 06:10:16;;;;;;;2.53;1.20;;;;;;;;;;10328464;28;20219;-75
2023/06/13 06:15:17;;;;;;;1.23;1.23;;;;;;;;;;10328264;28;20290;-75
2023/06/13 06:20:18;;;;;;;2.13;1.95;;;;;;;;;;10337289;28;20212;-75
2023/06/13 06:25:19;;;;;;;1.60;1.50;;;;;;;;;;10330929;28;20220;-75
2023/06/13 06:30:20;;;;;;;2.05;1.88;;;;;;;;;;10360617;28;20299;-76
2023/06/13 06:35:21;;;;;;;1.90;1.80;;;;;;;;;;10341875;28;20216;-75
2023/06/13 06:40:22;;;;;;;2.33;1.52;;;;;;;;;;10337440;28;20282;-75
2023/06/13 06:45:23;;;;;;;1.48;1.42;;;;;;;;;;10342535;28;20187;-76
2023/06/13 06:50:24;;;;;;;5.38;1.98;;;;;;;;;;10350239;28;20220;-76
2023/06/13 06:55:25;;;;;;;1.77;1.77;;;;;;;;;;10339181;28;20236;-74
2023/06/13 07:00:26;;;;;;;1.50;1.48;;;;;;;;;;10341415;28;20290;-75
2023/06/13 07:05:27;;;;;;;1.48;1.38;;;;;;;;;;10342449;28;20557;-74
2023/06/13 07:10:28;;;;;;;1.75;1.67;;;;;;;;;;10343073;28;20964;-77
2023/06/13 07:15:30;;;;;;;1.60;1.48;;;;;;;;;;10341187;28;20224;-77
2023/06/13 07:20:31;;;;;;;3.10;1.65;;;;;;;;;;10356103;28;20227;-77
2023/06/13 07:25:32;;;;;;;1.40;1.40;;;;;;;;;;10338693;28;20222;-75
2023/06/13 07:30:33;;;;;;;5.18;1.52;;;;;;;;;;10338270;28;20227;-74
2023/06/13 07:35:35;;;;;;;3.83;1.40;;;;;;;;;;10341699;28;20318;-74
2023/06/13 07:40:36;;;;;;;3.95;1.77;;;;;;;;;;10336166;28;20216;-75
2023/06/13 07:45:37;;;;;;;2.40;1.73;;;;;;;;;;10334684;28;20216;-75
2023/06/13 07:50:39;;;;;;;4.07;1.95;;;;;;;;;;10343059;28;20310;-75
2023/06/13 07:55:45;;;;;;;2.72;2.47;;;;;;;;;;10334565;28;20224;-75
2023/06/13 08:00:46;;;;;;;2.03;1.92;;;;;;;;;;10355332;28;20633;-75
2023/06/13 08:05:47;;;;;;;1.55;1.45;;;;;;;;;;10337732;28;20224;-77
2023/06/13 08:10:48;;;;;;;3.25;2.28;;;;;;;;;;10336865;28;20222;-75
2023/06/13 08:15:49;;;;;;;6.07;2.22;;;;;;;;;;10341242;28;20232;-75
2023/06/13 08:20:50;;;;;;;1.77;1.70;;;;;;;;;;10344772;28;20224;-75
2023/06/13 08:25:51;;;;;;;2.05;1.95;;;;;;;;;;10335590;28;20222;-74
2023/06/13 08:30:52;;;;;;;2.45;2.35;;;;;;;;;;10339163;28;20223;-75
2023/06/13 08:35:54;;;;;;;1.70;1.60;;;;;;;;;;10339211;28;20228;-75
2023/06/13 08:40:55;;;;;;;1.77;1.67;;;;;;;;;;10343415;28;20220;-75
2023/06/13 08:45:56;;;;;;;6.95;1.73;;;;;;;;;;10338230;28;20220;-75
2023/06/13 08:50:58;;;;;;;1.75;1.65;;;;;;;;;;10342506;28;20230;-75
2023/06/13 08:56:02;;;;;;;1.80;1.80;;;;;;;;;;10352813;28;20723;-75
2023/06/13 09:01:05;;;;;;;3.53;2.50;;;;;;;;;;10342265;28;20314;-75
2023/06/13 09:06:06;;;;;;;2.30;2.20;;;;;;;;;;10323330;28;20622;-75
2023/06/13 09:11:08;;;;;;;1.75;1.75;;;;;;;;;;10358135;28;20226;-76
2023/06/13 09:16:09;;;;;;;2.30;1.80;;;;;;;;;;10363799;28;20815;-78
2023/06/13 09:21:10;;;;;;;1.90;1.63;;;;;;;;;;10345931;28;20278;-75
2023/06/13 09:26:12;;;;;;;1.60;1.50;;;;;;;;;;10341573;28;20740;-76
2023/06/13 09:31:13;;;;;;;4.13;1.50;;;;;;;;;;10325308;28;20256;-75
2023/06/13 09:36:14;;;;;;;1.80;1.70;;;;;;;;;;10310009;28;20248;-75
2023/06/13 09:41:15;;;;;;;1.50;1.38;;;;;;;;;;10300803;28;20237;-76
2023/06/13 09:46:19;;;;;;;1.33;1.33;;;;;;;;;;10292973;28;20759;-76
2023/06/13 09:51:21;;;;;;;1.40;1.40;;;;;;;;;;10307928;28;20223;-76
2023/06/13 09:56:23;;;;;;;2.15;1.67;;;;;;;;;;10304701;28;20220;-75
2023/06/13 10:01:24;;;;;;;2.05;1.77;;;;;;;;;;10301918;28;20222;-76
2023/06/13 10:06:25;;;;;;;1.80;1.70;;;;;;;;;;10306134;28;20222;-77
2023/06/13 10:11:30;;;;;;;1.95;1.85;;;;;;;;;;10287276;28;20598;-75
2023/06/13 10:16:35;;;;;;;1.63;1.63;;;;;;;;;;10305586;28;20283;-76
2023/06/13 10:21:36;;;;;;;2.63;1.23;;;;;;;;;;10303839;28;20225;-79
2023/06/13 10:26:41;;;;;;;2.05;1.88;;;;;;;;;;10300830;28;20224;-77
2023/06/13 10:31:45;;;;;;;1.83;1.70;;;;;;;;;;10323096;28;20216;-78
2023/06/13 10:36:50;;;;;;;2.05;1.42;;;;;;;;;;10342556;28;20212;-78
2023/06/13 10:41:57;;;;;;;2.15;1.40;;;;;;;;;;10339375;28;20255;-78
2023/06/13 10:46:59;;;;;;;1.70;1.70;;;;;;;;;;10344969;28;20224;-79
2023/06/13 10:52:00;;;;;;;1.88;1.77;;;;;;;;;;10345835;28;20224;-78
2023/06/13 10:57:01;;;;;;;1.73;1.73;;;;;;;;;;10337997;28;20219;-78
2023/06/13 11:02:03;;;;;;;1.92;1.92;;;;;;;;;;10344194;28;20212;-78
2023/06/13 11:07:22;;;;;;;4.22;1.80;;;;;;;;;;10354615;28;20577;-79
2023/06/13 11:12:23;;;;;;;2.10;1.98;;;;;;;;;;10342300;28;21414;-78
2023/06/13 11:17:24;;;;;;;3.22;1.85;;;;;;;;;;10340107;28;20212;-78
2023/06/13 11:22:26;;;;;;;2.25;1.83;;;;;;;;;;10343513;28;20281;-79
2023/06/13 11:27:29;;;;;;;1.48;1.48;;;;;;;;;;10334314;28;20212;-78
2023/06/13 11:32:30;;;;;;;1.98;1.88;;;;;;;;;;10343866;28;20228;-79
2023/06/13 11:37:35;;;;;;;1.60;1.60;;;;;;;;;;10337715;28;20593;-78
2023/06/13 11:42:37;;;;;;;2.25;1.80;;;;;;;;;;10340481;28;20231;-79
2023/06/13 11:47:38;;;;;;;1.50;1.50;;;;;;;;;;10342126;28;20212;-78
2023/06/13 11:52:39;;;;;;;1.88;1.80;;;;;;;;;;10337111;28;20223;-79
2023/06/13 11:57:44;;;;;;;1.75;1.65;;;;;;;;;;10336316;28;20835;-78
2023/06/13 12:02:45;;;;;;;2.05;1.50;;;;;;;;;;10338770;28;20221;-78
2023/06/13 12:07:48;;;;;;;1.85;1.85;;;;;;;;;;10331104;28;20319;-79
2023/06/13 12:12:56;;;;;;;2.25;2.15;;;;;;;;;;10342892;28;20213;-78
2023/06/13 12:18:02;;;;;;;1.65;1.65;;;;;;;;;;10340232;28;21054;-78
2023/06/13 12:23:03;;;;;;;1.85;1.48;;;;;;;;;;10322766;28;20220;-77
2023/06/13 12:28:04;;;;;;;1.52;1.42;;;;;;;;;;10340180;28;20702;-79
2023/06/13 12:33:18;;;;;;;1.73;1.50;;;;;;;;;;10326938;28;20538;-77
2023/06/13 12:38:20;;;;;;;1.50;1.42;;;;;;;;;;10339838;28;20235;-78
2023/06/13 12:43:24;;;;;;;3.90;1.45;;;;;;;;;;10343808;28;20228;-77
2023/06/13 12:48:26;;;;;;;1.38;1.38;;;;;;;;;;10348332;28;20482;-78
2023/06/13 12:53:27;;;;;;;2.05;1.33;;;;;;;;;;10347443;28;20282;-78
2023/06/13 12:58:32;;;;;;;2.67;1.48;;;;;;;;;;10344788;28;20282;-78
2023/06/13 13:03:33;;;;;;;1.45;1.40;;;;;;;;;;10347961;28;20262;-78
2023/06/13 13:08:35;;;;;;;2.00;1.25;;;;;;;;;;10348486;28;20224;-78
2023/06/13 13:13:36;;;;;;;1.65;1.27;;;;;;;;;;10350141;28;20709;-78
2023/06/13 13:18:37;;;;;;;1.70;1.30;;;;;;;;;;10348256;28;20220;-79
2023/06/13 13:23:38;;;;;;;1.20;1.20;;;;;;;;;;10349678;28;20294;-79
2023/06/13 13:28:39;;;;;;;1.15;1.15;;;;;;;;;;10347678;28;20216;-78
2023/06/13 13:33:40;;;;;;;7.38;1.40;;;;;;;;;;10340698;28;20230;-78
2023/06/13 13:38:41;;;;;;;4.03;1.55;;;;;;;;;;10344415;28;20258;-78
2023/06/13 13:43:45;;;;;;;1.23;1.23;;;;;;;;;;10358839;28;20212;-80
2023/06/13 13:48:46;;;;;;;1.67;1.58;;;;;;;;;;10358108;28;20220;-79
2023/06/13 13:53:47;;;;;;;1.38;1.30;;;;;;;;;;10336662;28;20222;-78
2023/06/13 13:58:48;;;;;;;1.35;1.33;;;;;;;;;;10345043;28;20230;-78
2023/06/13 14:03:49;;;;;;;1.33;1.33;;;;;;;;;;10314875;28;20700;-78
2023/06/13 14:08:51;;;;;;;1.95;1.85;;;;;;;;;;10342339;28;20219;-78
2023/06/13 14:13:52;;;;;;;1.85;1.48;;;;;;;;;;10345837;28;20216;-78
2023/06/13 14:18:53;;;;;;;1.10;1.10;;;;;;;;;;10346807;28;20306;-78
2023/06/13 14:23:54;;;;;;;1.70;1.60;;;;;;;;;;10344942;28;20306;-78
2023/06/13 14:28:57;;;;;;;1.33;1.33;;;;;;;;;;10344573;28;20685;-77
2023/06/13 14:33:58;;;;;;;1.05;1.05;;;;;;;;;;10342478;28;20224;-77
2023/06/13 14:39:05;;;;;;;2.13;1.20;;;;;;;;;;10342628;28;20220;-79
2023/06/13 14:44:06;;;;;;;4.43;1.40;;;;;;;;;;10346417;28;20302;-78
2023/06/13 14:49:07;;;;;;;1.13;1.00;;;;;;;;;;10341497;28;20616;-78
2023/06/13 14:54:08;;;;;;;0.88;0.88;;;;;;;;;;10336654;28;20232;-77
2023/06/13 14:59:09;;;;;;;1.83;1.00;;;;;;;;;;10338843;28;20709;-78
2023/06/13 15:04:10;;;;;;;1.15;1.08;;;;;;;;;;10360611;28;20299;-77
2023/06/13 15:09:12;;;;;;;1.08;1.05;;;;;;;;;;10337377;28;21141;-78
2023/06/13 15:14:13;;;;;;;1.65;1.27;;;;;;;;;;10356737;28;20220;-77
2023/06/13 15:19:15;;;;;;;2.58;1.40;;;;;;;;;;10351235;28;20238;-76
2023/06/13 15:24:16;;;;;;;2.33;1.55;;;;;;;;;;10351183;28;20218;-78
2023/06/13 15:29:17;;;;;;;1.27;1.17;;;;;;;;;;10354774;28;20223;-78
2023/06/13 15:34:18;;;;;;;2.40;1.23;;;;;;;;;;10327536;28;20228;-79
2023/06/13 15:39:20;;;;;;;1.35;1.35;;;;;;;;;;10340617;28;20228;-77
2023/06/13 15:44:22;;;;;;;1.80;1.23;;;;;;;;;;10346666;28;20231;-78
2023/06/13 15:49:23;;;;;;;1.38;1.27;;;;;;;;;;10292550;28;21516;-78
2023/06/13 15:54:25;;;;;;;1.52;1.40;;;;;;;;;;10312444;28;20278;-78
2023/06/13 15:59:27;;;;;;;2.38;1.60;;;;;;;;;;10345247;28;20687;-78
2023/06/13 16:04:28;;;;;;;1.70;1.60;;;;;;;;;;10325627;28;21012;-77
2023/06/13 16:09:29;;;;;;;1.30;1.30;;;;;;;;;;10326044;28;20297;-77
2023/06/13 16:14:30;;;;;;;1.52;1.42;;;;;;;;;;10349689;28;20222;-77
2023/06/13 16:19:31;;;;;;;1.20;1.15;;;;;;;;;;10348753;28;20211;-78
2023/06/13 16:24:32;;;;;;;1.35;1.35;;;;;;;;;;10339018;28;20314;-77
2023/06/13 16:29:33;;;;;;;3.35;1.50;;;;;;;;;;10339211;28;20236;-78
2023/06/13 16:34:34;;;;;;;3.00;1.13;;;;;;;;;;10336605;28;20215;-78
2023/06/13 16:39:35;;;;;;;2.95;1.25;;;;;;;;;;10325491;28;20637;-78
2023/06/13 16:44:35;;;;;;;4.55;1.42;;;;;;;;;;10341817;28;20870;-78
2023/06/13 16:49:36;;;;;;;1.98;1.08;;;;;;;;;;10346415;28;20239;-79
2023/06/13 16:54:37;;;;;;;0.85;0.85;;;;;;;;;;10365733;28;21619;-79
2023/06/13 16:59:39;;;;;;;2.45;0.90;;;;;;;;;;10365494;28;20212;-80
2023/06/13 17:04:40;;;;;;;1.50;0.90;;;;;;;;;;10344934;28;20935;-80
2023/06/13 17:09:41;;;;;;;4.43;1.00;;;;;;;;;;10344361;28;20219;-80
2023/06/13 17:14:42;;;;;;;0.90;0.90;;;;;;;;;;10346316;28;20222;-79
2023/06/13 17:19:43;;;;;;;1.92;0.93;;;;;;;;;;10347160;28;20234;-80
2023/06/13 17:24:44;;;;;;;6.22;0.80;;;;;;;;;;10334895;28;20246;-80
2023/06/13 17:29:45;;;;;;;1.77;0.70;;;;;;;;;;10338259;28;20498;-79
2023/06/13 17:34:46;;;;;;;1.10;0.90;;;;;;;;;;10342252;28;20219;-79
2023/06/13 17:39:47;;;;;;;4.50;0.95;;;;;;;;;;10346011;28;20575;-79
2023/06/13 17:44:48;;;;;;;2.00;1.13;;;;;;;;;;10357832;28;20654;-80
2023/06/13 17:49:49;;;;;;;1.20;1.20;;;;;;;;;;10353004;28;20215;-79
2023/06/13 17:54:50;;;;;;;1.20;1.10;;;;;;;;;;10338615;28;20224;-78
2023/06/13 17:59:51;;;;;;;1.75;0.80;;;;;;;;;;10333364;28;20600;-78
2023/06/13 18:04:52;;;;;;;0.80;0.80;;;;;;;;;;10339086;28;21617;-77
2023/06/13 18:09:53;;;;;;;2.67;1.02;;;;;;;;;;10338542;28;20675;-77
2023/06/13 18:14:54;;;;;;;0.80;0.80;;;;;;;;;;10327479;28;20227;-79
2023/06/13 18:19:56;;;;;;;2.63;1.38;;;;;;;;;;10334190;28;20231;-78
2023/06/13 18:24:57;;;;;;;1.00;1.00;;;;;;;;;;10328907;28;20246;-78
2023/06/13 18:29:58;;;;;;;4.30;1.00;;;;;;;;;;10335999;28;20275;-78
2023/06/13 18:34:59;;;;;;;2.80;0.90;;;;;;;;;;10323729;28;20224;-78
2023/06/13 18:40:00;;;;;;;1.92;1.23;;;;;;;;;;10330420;28;20215;-77
2023/06/13 18:45:01;;;;;;;0.73;0.70;;;;;;;;;;10331019;28;20286;-77
2023/06/13 18:50:05;;;;;;;0.95;0.95;;;;;;;;;;10327015;28;20302;-77
2023/06/13 18:55:06;;;;;;;0.65;0.65;;;;;;;;;;10329904;28;20219;-78
2023/06/13 19:00:08;;;;;;;0.82;0.75;;;;;;;;;;10326241;28;20231;-78
2023/06/13 19:05:09;;;;;;;0.80;0.80;;;;;;;;;;10306414;28;20204;-77
2023/06/13 19:10:11;;;;;;;0.65;0.65;;;;;;;;;;10334163;28;20287;-78
2023/06/13 19:15:12;;;;;;;1.52;0.70;;;;;;;;;;10339749;28;20240;-76
2023/06/13 19:20:15;;;;;;;2.00;0.98;;;;;;;;;;10342641;28;20206;-78
2023/06/13 19:25:16;;;;;;;0.70;0.70;;;;;;;;;;10339471;28;20553;-76
2023/06/13 19:30:17;;;;;;;2.25;0.70;;;;;;;;;;10340998;28;20764;-77
2023/06/13 19:35:18;;;;;;;2.55;0.60;;;;;;;;;;10339402;28;20208;-78
2023/06/13 19:40:19;;;;;;;4.90;0.93;;;;;;;;;;10343507;28;20196;-77
2023/06/13 19:45:20;;;;;;;0.60;0.60;;;;;;;;;;10359130;28;20199;-78
2023/06/13 19:50:22;;;;;;;1.10;1.10;;;;;;;;;;10342271;28;20224;-78
2023/06/13 19:55:24;;;;;;;0.88;0.88;;;;;;;;;;10340392;28;20208;-78
2023/06/13 20:00:27;;;;;;;3.20;1.52;;;;;;;;;;10352163;28;20219;-78
2023/06/13 20:05:28;;;;;;;0.80;0.80;;;;;;;;;;10335506;28;20226;-76
2023/06/13 20:10:29;;;;;;;0.93;0.80;;;;;;;;;;10337307;28;20223;-78
2023/06/13 20:15:30;;;;;;;0.90;0.90;;;;;;;;;;10337058;28;20307;-77
2023/06/13 20:20:31;;;;;;;1.17;0.70;;;;;;;;;;10339651;28;20230;-78
2023/06/13 20:25:32;;;;;;;1.85;0.80;;;;;;;;;;10342461;28;20222;-78
2023/06/13 20:30:33;;;;;;;0.82;0.60;;;;;;;;;;10349722;28;20247;-79
2023/06/13 20:35:35;;;;;;;1.45;0.70;;;;;;;;;;10334330;28;20223;-78
2023/06/13 20:40:36;;;;;;;0.82;0.82;;;;;;;;;;10340950;28;20220;-77
2023/06/13 20:45:38;;;;;;;6.13;0.90;;;;;;;;;;10329951;28;20216;-78
2023/06/13 20:50:39;;;;;;;0.73;0.70;;;;;;;;;;10337829;28;20216;-75
2023/06/13 20:55:40;;;;;;;0.50;0.50;;;;;;;;;;10320325;28;20230;-76
2023/06/13 21:00:41;;;;;;;0.70;0.70;;;;;;;;;;10321635;28;20674;-76
2023/06/13 21:05:42;;;;;;;0.88;0.77;;;;;;;;;;10339682;28;20273;-75
2023/06/13 21:10:44;;;;;;;3.63;0.60;;;;;;;;;;10363733;28;20215;-76
2023/06/13 21:15:48;;;;;;;0.77;0.77;;;;;;;;;;10348715;28;20227;-77
2023/06/13 21:20:49;;;;;;;0.65;0.65;;;;;;;;;;10344166;28;20532;-76
2023/06/13 21:25:50;;;;;;;0.60;0.60;;;;;;;;;;10343776;28;20295;-76
2023/06/13 21:30:51;;;;;;;0.50;0.50;;;;;;;;;;10353968;28;20228;-76
2023/06/13 21:35:53;;;;;;;0.60;0.60;;;;;;;;;;10348352;28;20224;-75
2023/06/13 21:40:54;;;;;;;0.60;0.60;;;;;;;;;;10346731;28;20216;-75
2023/06/13 21:45:58;;;;;;;0.70;0.70;;;;;;;;;;10347304;28;20208;-75
2023/06/13 21:50:59;;;;;;;0.60;0.60;;;;;;;;;;10337185;28;21053;-76
2023/06/13 21:56:00;;;;;;;0.50;0.50;;;;;;;;;;10338121;28;20228;-76
2023/06/13 22:01:01;;;;;;;0.60;0.50;;;;;;;;;;10342365;28;20246;-76
2023/06/13 22:06:03;;;;;;;0.68;0.68;;;;;;;;;;10333791;28;20864;-76
2023/06/13 22:11:04;;;;;;;0.60;0.60;;;;;;;;;;10326357;28;20223;-77
2023/06/13 22:16:06;;;;;;;0.60;0.60;;;;;;;;;;10340319;28;20267;-76
2023/06/13 22:21:09;;;;;;;2.90;0.60;;;;;;;;;;10343633;28;20232;-75
2023/06/13 22:26:12;;;;;;;0.80;0.40;;;;;;;;;;10340866;28;20307;-75
2023/06/13 22:31:13;;;;;;;1.23;0.65;;;;;;;;;;10343412;28;20231;-75
2023/06/13 22:36:14;;;;;;;0.55;0.55;;;;;;;;;;10339665;28;20880;-75
2023/06/13 22:41:14;;;;;;;0.90;0.50;;;;;;;;;;10333326;28;20715;-75
2023/06/13 22:46:15;;;;;;;1.95;0.40;;;;;;;;;;10340038;28;20698;-74
2023/06/13 22:51:16;;;;;;;0.35;0.35;;;;;;;;;;10343480;28;21057;-76
2023/06/13 22:56:17;;;;;;;0.50;0.50;;;;;;;;;;10340238;28;20238;-77
2023/06/13 23:01:20;;;;;;;1.42;0.40;;;;;;;;;;10340502;28;20815;-76
2023/06/13 23:06:21;;;;;;;0.40;0.40;;;;;;;;;;10340095;28;20212;-76
2023/06/13 23:11:22;;;;;;;0.55;0.50;;;;;;;;;;10346359;28;20812;-77
2023/06/13 23:16:23;;;;;;;0.40;0.40;;;;;;;;;;10339681;28;20235;-76
2023/06/13 23:21:24;;;;;;;0.50;0.50;;;;;;;;;;10339495;28;20228;-76
2023/06/13 23:26:25;;;;;;;0.40;0.40;;;;;;;;;;10355917;28;20620;-76
2023/06/13 23:31:28;;;;;;;0.50;0.50;;;;;;;;;;10338196;28;20224;-75
2023/06/13 23:36:29;;;;;;;0.40;0.40;;;;;;;;;;10328593;28;21214;-75
2023/06/13 23:41:32;;;;;;;0.73;0.40;;;;;;;;;;10340749;28;20219;-78
2023/06/13 23:46:33;;;;;;;0.68;0.60;;;;;;;;;;10356569;28;20223;-77
2023/06/13 23:51:34;;;;;;;0.63;0.50;;;;;;;;;;10348374;28;20697;-77
2023/06/13 23:56:35;;;;;;;2.45;0.55;;;;;;;;;;10340685;28;20223;-75
